Terminal Aerodrome Forecast
Issued by NWS Charleston, WV

Current Version | Previous Version | Graphics & Text | Print | Product List | Glossary On
Versions: 1 2 3 4 5 6 7 8 9 10 11 12 13 14 15 16 17 18 19 20 21 22 23 24
772
FTUS41 KRLX 271739
TAFPKB
TAF
KPKB 271739Z 2718/2818 34005KT 6SM HZ OVC012
     FM271900 03004KT P6SM BKN020
     FM272100 VRB03KT P6SM BKN025
     FM280200 VRB03KT P6SM SCT025 BKN080
     FM280600 VRB03KT 3SM SHRA BR VCTS OVC020CB
     FM281200 12004KT 4SM BR BKN020
     FM281700 22007KT P6SM VCTS BKN030CB=

USA.gov is the U.S. government's official web portal to all federal, state and local government web resources and services.